sensor_id;sensor_type;location;lat;lon;timestamp;P1;durP1;ratioP1;P2;durP2;ratioP2
51266;SDS011;37338;47.426;19.204;2024-03-23T00:55:17;34.83;;;20.77;;
51266;SDS011;37338;47.426;19.204;2024-03-23T00:57:43;39.77;;;22.77;;
51266;SDS011;37338;47.426;19.204;2024-03-23T01:00:08;38.77;;;22.27;;
51266;SDS011;37338;47.426;19.204;2024-03-23T01:02:35;34.33;;;21.97;;
51266;SDS011;37338;47.426;19.204;2024-03-23T01:05:00;33.93;;;21.73;;
51266;SDS011;37338;47.426;19.204;2024-03-23T01:07:26;33.13;;;20.53;;
51266;SDS011;37338;47.426;19.204;2024-03-23T01:09:51;35.50;;;21.93;;
51266;SDS011;37338;47.426;19.204;2024-03-23T01:12:18;38.27;;;21.70;;
51266;SDS011;37338;47.426;19.204;2024-03-23T01:14:43;32.23;;;20.63;;
51266;SDS011;37338;47.426;19.204;2024-03-23T01:17:08;33.33;;;21.63;;
51266;SDS011;37338;47.426;19.204;2024-03-23T01:19:34;32.73;;;20.87;;
51266;SDS011;37338;47.426;19.204;2024-03-23T01:21:59;34.30;;;22.47;;
51266;SDS011;37338;47.426;19.204;2024-03-23T01:24:25;36.30;;;20.93;;
51266;SDS011;37338;47.426;19.204;2024-03-23T01:26:50;38.50;;;23.33;;
51266;SDS011;37338;47.426;19.204;2024-03-23T01:29:15;40.70;;;26.07;;
51266;SDS011;37338;47.426;19.204;2024-03-23T01:31:41;41.67;;;23.30;;
51266;SDS011;37338;47.426;19.204;2024-03-23T01:34:06;37.60;;;23.17;;
51266;SDS011;37338;47.426;19.204;2024-03-23T01:36:31;32.67;;;21.30;;
51266;SDS011;37338;47.426;19.204;2024-03-23T01:38:57;38.70;;;25.37;;
51266;SDS011;37338;47.426;19.204;2024-03-23T01:41:23;47.87;;;24.80;;
51266;SDS011;37338;47.426;19.204;2024-03-23T01:43:49;41.60;;;24.93;;
51266;SDS011;37338;47.426;19.204;2024-03-23T01:46:14;39.23;;;27.40;;
51266;SDS011;37338;47.426;19.204;2024-03-23T01:48:40;52.53;;;29.77;;
51266;SDS011;37338;47.426;19.204;2024-03-23T01:51:05;51.90;;;28.37;;
51266;SDS011;37338;47.426;19.204;2024-03-23T01:53:30;46.03;;;27.60;;
51266;SDS011;37338;47.426;19.204;2024-03-23T01:55:56;46.40;;;28.47;;
51266;SDS011;37338;47.426;19.204;2024-03-23T01:58:22;52.37;;;28.20;;
51266;SDS011;37338;47.426;19.204;2024-03-23T02:00:47;43.90;;;28.70;;
51266;SDS011;37338;47.426;19.204;2024-03-23T02:03:25;45.07;;;29.10;;
51266;SDS011;37338;47.426;19.204;2024-03-23T02:05:51;44.63;;;29.20;;
51266;SDS011;37338;47.426;19.204;2024-03-23T02:08:18;47.43;;;27.47;;
51266;SDS011;37338;47.426;19.204;2024-03-23T02:10:43;42.70;;;26.97;;
51266;SDS011;37338;47.426;19.204;2024-03-23T02:13:09;43.83;;;29.47;;
51266;SDS011;37338;47.426;19.204;2024-03-23T02:15:34;47.63;;;27.17;;
51266;SDS011;37338;47.426;19.204;2024-03-23T02:17:59;40.93;;;26.07;;
51266;SDS011;37338;47.426;19.204;2024-03-23T02:20:25;37.93;;;24.83;;
51266;SDS011;37338;47.426;19.204;2024-03-23T02:22:51;40.10;;;26.10;;
51266;SDS011;37338;47.426;19.204;2024-03-23T02:25:17;45.30;;;26.53;;
51266;SDS011;37338;47.426;19.204;2024-03-23T02:27:43;41.20;;;26.70;;
51266;SDS011;37338;47.426;19.204;2024-03-23T02:30:08;35.77;;;26.00;;
51266;SDS011;37338;47.426;19.204;2024-03-23T02:32:33;36.37;;;25.33;;
51266;SDS011;37338;47.426;19.204;2024-03-23T02:34:59;40.33;;;25.63;;
51266;SDS011;37338;47.426;19.204;2024-03-23T02:37:24;41.07;;;25.83;;
51266;SDS011;37338;47.426;19.204;2024-03-23T02:39:49;38.70;;;24.03;;
51266;SDS011;37338;47.426;19.204;2024-03-23T02:42:15;41.87;;;25.37;;
51266;SDS011;37338;47.426;19.204;2024-03-23T02:44:42;41.67;;;25.83;;
51266;SDS011;37338;47.426;19.204;2024-03-23T02:47:08;39.10;;;24.33;;
51266;SDS011;37338;47.426;19.204;2024-03-23T02:49:33;38.17;;;23.97;;
51266;SDS011;37338;47.426;19.204;2024-03-23T02:51:58;46.90;;;25.53;;
51266;SDS011;37338;47.426;19.204;2024-03-23T02:54:24;38.57;;;23.73;;
51266;SDS011;37338;47.426;19.204;2024-03-23T02:56:49;37.07;;;24.17;;
51266;SDS011;37338;47.426;19.204;2024-03-23T02:59:14;35.07;;;23.57;;
51266;SDS011;37338;47.426;19.204;2024-03-23T03:01:40;37.43;;;24.10;;
51266;SDS011;37338;47.426;19.204;2024-03-23T03:04:05;33.80;;;22.77;;
51266;SDS011;37338;47.426;19.204;2024-03-23T03:06:30;37.20;;;22.63;;
51266;SDS011;37338;47.426;19.204;2024-03-23T03:08:56;36.37;;;23.03;;
51266;SDS011;37338;47.426;19.204;2024-03-23T03:11:21;35.67;;;23.10;;
51266;SDS011;37338;47.426;19.204;2024-03-23T03:13:46;31.43;;;21.37;;
51266;SDS011;37338;47.426;19.204;2024-03-23T03:16:12;35.40;;;21.70;;
51266;SDS011;37338;47.426;19.204;2024-03-23T03:18:37;35.53;;;21.47;;
51266;SDS011;37338;47.426;19.204;2024-03-23T03:21:06;36.00;;;21.17;;
51266;SDS011;37338;47.426;19.204;2024-03-23T03:23:36;36.37;;;21.77;;
51266;SDS011;37338;47.426;19.204;2024-03-23T03:26:04;30.80;;;19.50;;
51266;SDS011;37338;47.426;19.204;2024-03-23T03:28:30;29.63;;;20.93;;
51266;SDS011;37338;47.426;19.204;2024-03-23T03:30:57;34.87;;;21.77;;
51266;SDS011;37338;47.426;19.204;2024-03-23T03:33:22;34.97;;;20.43;;
51266;SDS011;37338;47.426;19.204;2024-03-23T03:35:48;33.50;;;21.50;;
51266;SDS011;37338;47.426;19.204;2024-03-23T03:38:14;30.00;;;20.17;;
51266;SDS011;37338;47.426;19.204;2024-03-23T03:40:39;33.67;;;21.93;;
51266;SDS011;37338;47.426;19.204;2024-03-23T03:43:06;27.60;;;19.93;;
51266;SDS011;37338;47.426;19.204;2024-03-23T03:45:32;33.30;;;20.67;;
51266;SDS011;37338;47.426;19.204;2024-03-23T03:47:57;30.50;;;20.33;;
51266;SDS011;37338;47.426;19.204;2024-03-23T03:50:24;30.27;;;19.27;;
51266;SDS011;37338;47.426;19.204;2024-03-23T03:52:49;30.23;;;20.10;;
51266;SDS011;37338;47.426;19.204;2024-03-23T03:55:15;29.67;;;21.10;;
51266;SDS011;37338;47.426;19.204;2024-03-23T03:57:41;28.63;;;20.90;;
51266;SDS011;37338;47.426;19.204;2024-03-23T04:00:07;30.87;;;20.23;;
51266;SDS011;37338;47.426;19.204;2024-03-23T04:02:36;26.30;;;18.57;;
51266;SDS011;37338;47.426;19.204;2024-03-23T04:05:02;28.40;;;18.90;;
51266;SDS011;37338;47.426;19.204;2024-03-23T04:07:28;41.97;;;20.90;;
51266;SDS011;37338;47.426;19.204;2024-03-23T04:09:53;29.53;;;19.17;;
51266;SDS011;37338;47.426;19.204;2024-03-23T04:12:19;35.27;;;20.17;;
51266;SDS011;37338;47.426;19.204;2024-03-23T04:14:45;30.93;;;19.33;;
51266;SDS011;37338;47.426;19.204;2024-03-23T04:17:10;28.30;;;18.93;;
51266;SDS011;37338;47.426;19.204;2024-03-23T04:19:35;28.73;;;19.90;;
51266;SDS011;37338;47.426;19.204;2024-03-23T04:22:00;28.20;;;19.60;;
51266;SDS011;37338;47.426;19.204;2024-03-23T04:24:26;34.73;;;20.07;;
51266;SDS011;37338;47.426;19.204;2024-03-23T04:26:51;32.13;;;19.87;;
51266;SDS011;37338;47.426;19.204;2024-03-23T04:29:17;27.67;;;18.73;;
51266;SDS011;37338;47.426;19.204;2024-03-23T04:31:42;30.97;;;19.93;;
51266;SDS011;37338;47.426;19.204;2024-03-23T04:34:08;30.93;;;20.17;;
51266;SDS011;37338;47.426;19.204;2024-03-23T04:36:33;34.87;;;19.83;;
51266;SDS011;37338;47.426;19.204;2024-03-23T04:38:59;29.00;;;19.33;;
51266;SDS011;37338;47.426;19.204;2024-03-23T04:41:25;28.73;;;20.03;;
51266;SDS011;37338;47.426;19.204;2024-03-23T04:43:51;32.27;;;19.87;;
51266;SDS011;37338;47.426;19.204;2024-03-23T04:46:16;32.13;;;20.03;;
51266;SDS011;37338;47.426;19.204;2024-03-23T04:48:41;26.23;;;19.60;;
51266;SDS011;37338;47.426;19.204;2024-03-23T04:51:09;26.83;;;19.17;;
51266;SDS011;37338;47.426;19.204;2024-03-23T04:53:34;29.17;;;20.00;;
51266;SDS011;37338;47.426;19.204;2024-03-23T04:55:59;25.37;;;19.17;;
51266;SDS011;37338;47.426;19.204;2024-03-23T04:58:25;29.80;;;20.37;;
51266;SDS011;37338;47.426;19.204;2024-03-23T05:00:54;29.77;;;20.17;;
51266;SDS011;37338;47.426;19.204;2024-03-23T05:03:20;28.97;;;19.77;;
51266;SDS011;37338;47.426;19.204;2024-03-23T05:05:46;28.47;;;19.90;;
51266;SDS011;37338;47.426;19.204;2024-03-23T05:08:11;31.17;;;20.47;;
51266;SDS011;37338;47.426;19.204;2024-03-23T05:10:37;27.03;;;20.10;;
51266;SDS011;37338;47.426;19.204;2024-03-23T05:13:03;26.83;;;19.37;;
51266;SDS011;37338;47.426;19.204;2024-03-23T05:15:28;33.50;;;21.93;;
51266;SDS011;37338;47.426;19.204;2024-03-23T05:17:54;28.20;;;19.90;;
51266;SDS011;37338;47.426;19.204;2024-03-23T05:20:20;33.17;;;20.40;;
51266;SDS011;37338;47.426;19.204;2024-03-23T05:22:45;32.77;;;20.10;;
51266;SDS011;37338;47.426;19.204;2024-03-23T05:25:11;31.30;;;20.53;;
51266;SDS011;37338;47.426;19.204;2024-03-23T05:27:37;35.93;;;20.57;;
51266;SDS011;37338;47.426;19.204;2024-03-23T05:30:02;27.00;;;19.20;;
51266;SDS011;37338;47.426;19.204;2024-03-23T05:32:28;27.30;;;19.87;;
51266;SDS011;37338;47.426;19.204;2024-03-23T05:34:54;26.90;;;19.33;;
51266;SDS011;37338;47.426;19.204;2024-03-23T05:37:24;33.33;;;20.13;;
51266;SDS011;37338;47.426;19.204;2024-03-23T05:39:49;33.30;;;20.00;;
51266;SDS011;37338;47.426;19.204;2024-03-23T05:42:18;28.67;;;20.60;;
51266;SDS011;37338;47.426;19.204;2024-03-23T05:44:44;31.23;;;20.87;;
51266;SDS011;37338;47.426;19.204;2024-03-23T05:47:10;29.20;;;19.73;;
51266;SDS011;37338;47.426;19.204;2024-03-23T05:49:35;33.53;;;21.83;;
51266;SDS011;37338;47.426;19.204;2024-03-23T05:52:01;30.90;;;21.03;;
51266;SDS011;37338;47.426;19.204;2024-03-23T05:54:28;31.13;;;21.63;;
51266;SDS011;37338;47.426;19.204;2024-03-23T05:56:55;28.60;;;20.43;;
51266;SDS011;37338;47.426;19.204;2024-03-23T05:59:21;31.47;;;19.70;;
51266;SDS011;37338;47.426;19.204;2024-03-23T06:01:46;30.03;;;19.97;;
51266;SDS011;37338;47.426;19.204;2024-03-23T06:04:12;29.97;;;20.17;;
51266;SDS011;37338;47.426;19.204;2024-03-23T06:06:39;23.23;;;18.90;;
51266;SDS011;37338;47.426;19.204;2024-03-23T06:09:04;30.83;;;20.80;;
51266;SDS011;37338;47.426;19.204;2024-03-23T06:11:30;31.07;;;21.53;;
51266;SDS011;37338;47.426;19.204;2024-03-23T06:13:55;24.57;;;19.17;;
51266;SDS011;37338;47.426;19.204;2024-03-23T06:16:21;30.10;;;21.40;;
51266;SDS011;37338;47.426;19.204;2024-03-23T06:18:49;33.47;;;20.97;;
51266;SDS011;37338;47.426;19.204;2024-03-23T06:21:15;24.27;;;18.43;;
51266;SDS011;37338;47.426;19.204;2024-03-23T06:23:43;28.13;;;18.73;;
51266;SDS011;37338;47.426;19.204;2024-03-23T06:26:13;31.63;;;20.17;;
51266;SDS011;37338;47.426;19.204;2024-03-23T06:28:38;25.97;;;20.17;;
51266;SDS011;37338;47.426;19.204;2024-03-23T06:31:07;25.23;;;20.10;;
51266;SDS011;37338;47.426;19.204;2024-03-23T06:33:34;29.20;;;21.07;;
51266;SDS011;37338;47.426;19.204;2024-03-23T06:35:59;27.87;;;19.53;;
51266;SDS011;37338;47.426;19.204;2024-03-23T06:38:24;29.10;;;20.30;;
51266;SDS011;37338;47.426;19.204;2024-03-23T06:40:50;24.97;;;19.73;;
51266;SDS011;37338;47.426;19.204;2024-03-23T06:43:17;29.77;;;20.30;;
51266;SDS011;37338;47.426;19.204;2024-03-23T06:45:43;25.90;;;19.70;;
51266;SDS011;37338;47.426;19.204;2024-03-23T06:48:08;26.97;;;19.83;;
51266;SDS011;37338;47.426;19.204;2024-03-23T06:50:34;28.07;;;19.97;;
51266;SDS011;37338;47.426;19.204;2024-03-23T06:52:59;26.50;;;18.63;;
51266;SDS011;37338;47.426;19.204;2024-03-23T06:55:26;26.67;;;20.63;;
51266;SDS011;37338;47.426;19.204;2024-03-23T06:57:52;25.63;;;19.87;;
51266;SDS011;37338;47.426;19.204;2024-03-23T07:00:18;25.47;;;19.57;;
51266;SDS011;37338;47.426;19.204;2024-03-23T07:02:43;30.13;;;19.53;;
51266;SDS011;37338;47.426;19.204;2024-03-23T07:05:09;25.17;;;20.00;;
51266;SDS011;37338;47.426;19.204;2024-03-23T07:07:35;24.03;;;19.87;;
51266;SDS011;37338;47.426;19.204;2024-03-23T07:10:01;30.37;;;19.23;;
51266;SDS011;37338;47.426;19.204;2024-03-23T07:12:26;21.70;;;18.75;;
51266;SDS011;37338;47.426;19.204;2024-03-23T07:14:51;27.43;;;19.43;;
51266;SDS011;37338;47.426;19.204;2024-03-23T07:17:17;25.73;;;17.45;;
51266;SDS011;37338;47.426;19.204;2024-03-23T07:19:43;23.50;;;17.73;;
51266;SDS011;37338;47.426;19.204;2024-03-23T07:22:08;25.52;;;18.45;;
51266;SDS011;37338;47.426;19.204;2024-03-23T07:24:34;23.77;;;17.65;;
51266;SDS011;37338;47.426;19.204;2024-03-23T07:26:59;23.67;;;17.30;;
51266;SDS011;37338;47.426;19.204;2024-03-23T07:29:24;22.08;;;16.50;;
51266;SDS011;37338;47.426;19.204;2024-03-23T07:31:50;26.00;;;16.75;;
51266;SDS011;37338;47.426;19.204;2024-03-23T07:34:15;25.45;;;17.55;;
51266;SDS011;37338;47.426;19.204;2024-03-23T07:36:40;24.52;;;17.33;;
51266;SDS011;37338;47.426;19.204;2024-03-23T07:39:06;16.20;;;14.25;;
51266;SDS011;37338;47.426;19.204;2024-03-23T07:41:33;15.90;;;14.13;;
51266;SDS011;37338;47.426;19.204;2024-03-23T07:43:58;16.27;;;12.75;;
51266;SDS011;37338;47.426;19.204;2024-03-23T07:46:23;20.42;;;13.13;;
51266;SDS011;37338;47.426;19.204;2024-03-23T07:48:50;15.15;;;12.15;;
51266;SDS011;37338;47.426;19.204;2024-03-23T07:51:16;14.05;;;11.82;;
51266;SDS011;37338;47.426;19.204;2024-03-23T07:53:44;15.13;;;11.90;;
51266;SDS011;37338;47.426;19.204;2024-03-23T07:56:14;14.93;;;12.80;;
51266;SDS011;37338;47.426;19.204;2024-03-23T07:58:40;16.85;;;12.20;;
51266;SDS011;37338;47.426;19.204;2024-03-23T08:01:06;15.20;;;12.80;;
51266;SDS011;37338;47.426;19.204;2024-03-23T08:03:33;18.83;;;13.40;;
51266;SDS011;37338;47.426;19.204;2024-03-23T08:06:06;15.23;;;12.30;;
51266;SDS011;37338;47.426;19.204;2024-03-23T08:08:32;13.38;;;11.98;;
51266;SDS011;37338;47.426;19.204;2024-03-23T08:10:57;15.63;;;12.60;;
51266;SDS011;37338;47.426;19.204;2024-03-23T08:13:22;12.50;;;9.98;;
51266;SDS011;37338;47.426;19.204;2024-03-23T08:15:48;15.50;;;11.13;;
51266;SDS011;37338;47.426;19.204;2024-03-23T08:18:13;12.60;;;10.65;;
51266;SDS011;37338;47.426;19.204;2024-03-23T08:20:40;15.27;;;10.68;;
51266;SDS011;37338;47.426;19.204;2024-03-23T08:23:06;12.68;;;10.90;;
51266;SDS011;37338;47.426;19.204;2024-03-23T08:25:32;17.67;;;11.23;;
51266;SDS011;37338;47.426;19.204;2024-03-23T08:27:57;12.57;;;9.60;;
51266;SDS011;37338;47.426;19.204;2024-03-23T08:30:23;16.13;;;9.93;;
51266;SDS011;37338;47.426;19.204;2024-03-23T08:32:48;12.60;;;9.27;;
51266;SDS011;37338;47.426;19.204;2024-03-23T08:35:13;11.73;;;9.85;;
51266;SDS011;37338;47.426;19.204;2024-03-23T08:37:39;12.57;;;10.07;;
51266;SDS011;37338;47.426;19.204;2024-03-23T08:40:04;16.65;;;9.65;;
51266;SDS011;37338;47.426;19.204;2024-03-23T08:42:30;13.80;;;9.00;;
51266;SDS011;37338;47.426;19.204;2024-03-23T08:44:55;13.27;;;9.60;;
51266;SDS011;37338;47.426;19.204;2024-03-23T08:47:21;13.30;;;9.30;;
51266;SDS011;37338;47.426;19.204;2024-03-23T08:49:46;12.90;;;9.48;;
51266;SDS011;37338;47.426;19.204;2024-03-23T08:52:11;9.90;;;8.82;;
51266;SDS011;37338;47.426;19.204;2024-03-23T08:54:37;11.48;;;8.43;;
51266;SDS011;37338;47.426;19.204;2024-03-23T08:57:02;9.65;;;8.57;;
51266;SDS011;37338;47.426;19.204;2024-03-23T08:59:27;13.48;;;8.65;;
51266;SDS011;37338;47.426;19.204;2024-03-23T09:01:53;12.27;;;8.30;;
51266;SDS011;37338;47.426;19.204;2024-03-23T09:04:18;11.98;;;8.20;;
51266;SDS011;37338;47.426;19.204;2024-03-23T09:06:44;11.02;;;8.82;;
51266;SDS011;37338;47.426;19.204;2024-03-23T09:09:09;12.90;;;8.55;;
51266;SDS011;37338;47.426;19.204;2024-03-23T09:11:35;9.50;;;8.43;;
51266;SDS011;37338;47.426;19.204;2024-03-23T09:14:00;14.00;;;8.65;;
51266;SDS011;37338;47.426;19.204;2024-03-23T09:16:25;10.35;;;8.20;;
51266;SDS011;37338;47.426;19.204;2024-03-23T09:18:51;11.35;;;8.95;;
51266;SDS011;37338;47.426;19.204;2024-03-23T09:21:17;12.10;;;8.57;;
51266;SDS011;37338;47.426;19.204;2024-03-23T09:23:43;14.43;;;9.40;;
51266;SDS011;37338;47.426;19.204;2024-03-23T09:26:08;11.35;;;8.45;;
51266;SDS011;37338;47.426;19.204;2024-03-23T09:28:34;12.05;;;9.48;;
51266;SDS011;37338;47.426;19.204;2024-03-23T09:31:02;12.95;;;8.20;;
51266;SDS011;37338;47.426;19.204;2024-03-23T09:33:28;9.27;;;6.88;;
51266;SDS011;37338;47.426;19.204;2024-03-23T09:35:54;8.38;;;6.18;;
51266;SDS011;37338;47.426;19.204;2024-03-23T09:38:20;10.60;;;6.80;;
51266;SDS011;37338;47.426;19.204;2024-03-23T09:40:45;9.40;;;7.57;;
51266;SDS011;37338;47.426;19.204;2024-03-23T09:43:13;8.35;;;7.35;;
51266;SDS011;37338;47.426;19.204;2024-03-23T09:45:39;13.82;;;8.13;;
51266;SDS011;37338;47.426;19.204;2024-03-23T09:48:08;9.27;;;6.93;;
51266;SDS011;37338;47.426;19.204;2024-03-23T09:50:35;8.52;;;7.63;;
51266;SDS011;37338;47.426;19.204;2024-03-23T09:53:06;10.90;;;6.63;;
51266;SDS011;37338;47.426;19.204;2024-03-23T09:55:32;7.65;;;6.15;;
51266;SDS011;37338;47.426;19.204;2024-03-23T09:57:57;11.15;;;5.80;;
51266;SDS011;37338;47.426;19.204;2024-03-23T10:00:23;5.65;;;5.05;;
51266;SDS011;37338;47.426;19.204;2024-03-23T10:02:48;8.88;;;4.80;;
51266;SDS011;37338;47.426;19.204;2024-03-23T10:05:20;8.38;;;5.20;;
51266;SDS011;37338;47.426;19.204;2024-03-23T10:07:49;8.88;;;4.57;;
51266;SDS011;37338;47.426;19.204;2024-03-23T10:10:17;7.22;;;4.43;;
51266;SDS011;37338;47.426;19.204;2024-03-23T10:12:46;9.38;;;4.28;;
51266;SDS011;37338;47.426;19.204;2024-03-23T10:17:47;11.60;;;3.97;;
51266;SDS011;37338;47.426;19.204;2024-03-23T10:20:13;9.55;;;3.42;;
51266;SDS011;37338;47.426;19.204;2024-03-23T10:22:44;6.28;;;3.17;;
51266;SDS011;37338;47.426;19.204;2024-03-23T10:25:10;15.48;;;3.72;;
51266;SDS011;37338;47.426;19.204;2024-03-23T10:27:36;8.18;;;4.22;;
51266;SDS011;37338;47.426;19.204;2024-03-23T10:30:08;8.18;;;3.40;;
51266;SDS011;37338;47.426;19.204;2024-03-23T10:32:38;6.28;;;3.72;;
51266;SDS011;37338;47.426;19.204;2024-03-23T10:35:19;4.63;;;3.58;;
51266;SDS011;37338;47.426;19.204;2024-03-23T10:37:48;4.90;;;3.15;;
51266;SDS011;37338;47.426;19.204;2024-03-23T10:40:16;4.50;;;2.80;;
51266;SDS011;37338;47.426;19.204;2024-03-23T10:42:43;5.78;;;3.55;;
51266;SDS011;37338;47.426;19.204;2024-03-23T10:45:09;4.28;;;2.53;;
51266;SDS011;37338;47.426;19.204;2024-03-23T10:47:34;6.32;;;2.40;;
51266;SDS011;37338;47.426;19.204;2024-03-23T10:50:01;5.97;;;3.25;;
51266;SDS011;37338;47.426;19.204;2024-03-23T10:52:27;3.72;;;2.67;;
51266;SDS011;37338;47.426;19.204;2024-03-23T10:54:52;5.57;;;3.38;;
51266;SDS011;37338;47.426;19.204;2024-03-23T10:57:18;6.97;;;2.78;;
51266;SDS011;37338;47.426;19.204;2024-03-23T10:59:45;6.85;;;2.70;;
51266;SDS011;37338;47.426;19.204;2024-03-23T11:02:20;10.48;;;3.08;;
51266;SDS011;37338;47.426;19.204;2024-03-23T11:04:46;5.90;;;2.72;;
51266;SDS011;37338;47.426;19.204;2024-03-23T11:09:48;7.22;;;2.50;;
51266;SDS011;37338;47.426;19.204;2024-03-23T11:14:55;7.65;;;2.58;;
51266;SDS011;37338;47.426;19.204;2024-03-23T11:17:22;5.55;;;3.00;;
51266;SDS011;37338;47.426;19.204;2024-03-23T11:20:01;6.10;;;2.30;;
51266;SDS011;37338;47.426;19.204;2024-03-23T11:22:38;4.88;;;2.20;;
51266;SDS011;37338;47.426;19.204;2024-03-23T11:25:14;5.65;;;3.05;;
51266;SDS011;37338;47.426;19.204;2024-03-23T11:27:40;3.47;;;2.22;;
51266;SDS011;37338;47.426;19.204;2024-03-23T11:32:37;3.85;;;1.70;;
51266;SDS011;37338;47.426;19.204;2024-03-23T11:35:03;3.42;;;1.80;;
51266;SDS011;37338;47.426;19.204;2024-03-23T11:37:28;5.28;;;2.08;;
51266;SDS011;37338;47.426;19.204;2024-03-23T11:39:53;4.60;;;2.60;;
51266;SDS011;37338;47.426;19.204;2024-03-23T11:42:19;7.35;;;2.85;;
51266;SDS011;37338;47.426;19.204;2024-03-23T11:44:46;3.08;;;2.22;;
51266;SDS011;37338;47.426;19.204;2024-03-23T11:47:12;6.05;;;2.63;;
51266;SDS011;37338;47.426;19.204;2024-03-23T11:49:37;4.70;;;2.72;;
51266;SDS011;37338;47.426;19.204;2024-03-23T11:52:06;8.40;;;3.45;;
51266;SDS011;37338;47.426;19.204;2024-03-23T11:54:32;5.70;;;1.98;;
51266;SDS011;37338;47.426;19.204;2024-03-23T11:56:58;5.63;;;3.20;;
51266;SDS011;37338;47.426;19.204;2024-03-23T11:59:33;7.53;;;2.30;;
51266;SDS011;37338;47.426;19.204;2024-03-23T12:02:00;2.28;;;1.65;;
51266;SDS011;37338;47.426;19.204;2024-03-23T12:04:29;6.88;;;2.40;;
51266;SDS011;37338;47.426;19.204;2024-03-23T12:07:10;2.95;;;2.20;;
51266;SDS011;37338;47.426;19.204;2024-03-23T12:09:35;3.50;;;2.10;;
51266;SDS011;37338;47.426;19.204;2024-03-23T12:12:10;6.55;;;2.22;;
51266;SDS011;37338;47.426;19.204;2024-03-23T12:14:41;4.50;;;2.00;;
51266;SDS011;37338;47.426;19.204;2024-03-23T12:17:10;4.20;;;1.50;;
51266;SDS011;37338;47.426;19.204;2024-03-23T12:19:36;1.73;;;1.20;;
51266;SDS011;37338;47.426;19.204;2024-03-23T12:22:05;2.72;;;1.45;;
51266;SDS011;37338;47.426;19.204;2024-03-23T12:24:31;1.63;;;1.02;;
51266;SDS011;37338;47.426;19.204;2024-03-23T12:26:59;2.33;;;1.67;;
51266;SDS011;37338;47.426;19.204;2024-03-23T12:29:28;3.90;;;1.13;;
51266;SDS011;37338;47.426;19.204;2024-03-23T12:31:54;3.55;;;1.50;;
51266;SDS011;37338;47.426;19.204;2024-03-23T12:34:20;11.43;;;3.80;;
51266;SDS011;37338;47.426;19.204;2024-03-23T12:36:46;3.35;;;1.50;;
51266;SDS011;37338;47.426;19.204;2024-03-23T12:39:11;6.05;;;1.90;;
51266;SDS011;37338;47.426;19.204;2024-03-23T12:41:36;4.60;;;1.60;;
51266;SDS011;37338;47.426;19.204;2024-03-23T12:44:02;2.53;;;1.63;;
51266;SDS011;37338;47.426;19.204;2024-03-23T12:46:27;7.25;;;1.60;;
51266;SDS011;37338;47.426;19.204;2024-03-23T12:48:52;6.22;;;2.22;;
51266;SDS011;37338;47.426;19.204;2024-03-23T12:51:18;3.92;;;1.77;;
51266;SDS011;37338;47.426;19.204;2024-03-23T12:53:43;6.47;;;2.65;;
51266;SDS011;37338;47.426;19.204;2024-03-23T12:56:11;4.05;;;1.80;;
51266;SDS011;37338;47.426;19.204;2024-03-23T12:58:37;6.32;;;2.15;;
51266;SDS011;37338;47.426;19.204;2024-03-23T13:01:02;3.75;;;1.60;;
51266;SDS011;37338;47.426;19.204;2024-03-23T13:03:27;2.78;;;1.35;;
51266;SDS011;37338;47.426;19.204;2024-03-23T13:05:53;5.20;;;1.90;;
51266;SDS011;37338;47.426;19.204;2024-03-23T13:08:18;5.68;;;1.50;;
51266;SDS011;37338;47.426;19.204;2024-03-23T13:10:43;4.53;;;2.42;;
51266;SDS011;37338;47.426;19.204;2024-03-23T13:13:09;4.90;;;2.30;;
51266;SDS011;37338;47.426;19.204;2024-03-23T13:15:35;2.78;;;2.13;;
51266;SDS011;37338;47.426;19.204;2024-03-23T13:18:00;6.82;;;2.75;;
51266;SDS011;37338;47.426;19.204;2024-03-23T13:20:25;6.82;;;1.92;;
51266;SDS011;37338;47.426;19.204;2024-03-23T13:22:51;7.57;;;2.58;;
51266;SDS011;37338;47.426;19.204;2024-03-23T13:25:17;6.00;;;2.65;;
51266;SDS011;37338;47.426;19.204;2024-03-23T13:27:43;3.80;;;2.50;;
51266;SDS011;37338;47.426;19.204;2024-03-23T13:30:09;5.43;;;2.05;;
51266;SDS011;37338;47.426;19.204;2024-03-23T13:32:35;3.53;;;2.08;;
51266;SDS011;37338;47.426;19.204;2024-03-23T13:35:00;5.60;;;2.25;;
51266;SDS011;37338;47.426;19.204;2024-03-23T13:37:25;2.95;;;2.15;;
51266;SDS011;37338;47.426;19.204;2024-03-23T13:39:51;1.98;;;1.60;;
51266;SDS011;37338;47.426;19.204;2024-03-23T13:42:16;4.03;;;2.05;;
51266;SDS011;37338;47.426;19.204;2024-03-23T13:44:41;7.38;;;2.90;;
51266;SDS011;37338;47.426;19.204;2024-03-23T13:47:07;6.32;;;2.30;;
51266;SDS011;37338;47.426;19.204;2024-03-23T13:49:33;2.38;;;1.80;;
51266;SDS011;37338;47.426;19.204;2024-03-23T13:51:59;1.52;;;0.98;;
51266;SDS011;37338;47.426;19.204;2024-03-23T13:54:27;1.00;;;0.85;;
51266;SDS011;37338;47.426;19.204;2024-03-23T13:56:53;3.63;;;0.95;;
51266;SDS011;37338;47.426;19.204;2024-03-23T13:59:20;2.65;;;1.33;;
51266;SDS011;37338;47.426;19.204;2024-03-23T14:01:47;9.73;;;6.00;;
51266;SDS011;37338;47.426;19.204;2024-03-23T14:04:13;11.23;;;4.78;;
51266;SDS011;37338;47.426;19.204;2024-03-23T14:06:39;5.30;;;3.70;;
51266;SDS011;37338;47.426;19.204;2024-03-23T14:09:04;3.70;;;2.25;;
51266;SDS011;37338;47.426;19.204;2024-03-23T14:11:33;4.38;;;2.30;;
51266;SDS011;37338;47.426;19.204;2024-03-23T14:13:59;5.15;;;2.40;;
51266;SDS011;37338;47.426;19.204;2024-03-23T14:16:24;3.90;;;3.17;;
51266;SDS011;37338;47.426;19.204;2024-03-23T14:18:49;3.65;;;2.13;;
51266;SDS011;37338;47.426;19.204;2024-03-23T14:21:14;3.50;;;1.85;;
51266;SDS011;37338;47.426;19.204;2024-03-23T14:23:40;4.50;;;2.00;;
51266;SDS011;37338;47.426;19.204;2024-03-23T14:26:08;5.00;;;2.33;;
51266;SDS011;37338;47.426;19.204;2024-03-23T14:28:33;7.10;;;2.97;;
51266;SDS011;37338;47.426;19.204;2024-03-23T14:31:00;5.07;;;2.53;;
51266;SDS011;37338;47.426;19.204;2024-03-23T14:33:25;4.85;;;1.45;;
51266;SDS011;37338;47.426;19.204;2024-03-23T14:35:54;5.88;;;1.83;;
51266;SDS011;37338;47.426;19.204;2024-03-23T14:38:20;4.13;;;1.60;;
51266;SDS011;37338;47.426;19.204;2024-03-23T14:40:46;1.88;;;1.00;;
51266;SDS011;37338;47.426;19.204;2024-03-23T14:43:11;1.67;;;0.70;;
51266;SDS011;37338;47.426;19.204;2024-03-23T14:45:37;4.10;;;0.77;;
51266;SDS011;37338;47.426;19.204;2024-03-23T14:48:02;3.15;;;0.98;;
51266;SDS011;37338;47.426;19.204;2024-03-23T14:50:27;1.77;;;0.90;;
51266;SDS011;37338;47.426;19.204;2024-03-23T14:52:53;4.18;;;1.40;;
51266;SDS011;37338;47.426;19.204;2024-03-23T14:55:18;1.83;;;1.00;;
51266;SDS011;37338;47.426;19.204;2024-03-23T14:57:44;3.90;;;1.10;;
51266;SDS011;37338;47.426;19.204;2024-03-23T15:00:09;6.05;;;1.10;;
51266;SDS011;37338;47.426;19.204;2024-03-23T15:02:38;2.28;;;0.80;;
51266;SDS011;37338;47.426;19.204;2024-03-23T15:05:04;3.80;;;1.25;;
51266;SDS011;37338;47.426;19.204;2024-03-23T15:07:32;4.15;;;1.55;;
51266;SDS011;37338;47.426;19.204;2024-03-23T15:09:58;2.45;;;1.00;;
51266;SDS011;37338;47.426;19.204;2024-03-23T15:12:23;2.85;;;1.15;;
51266;SDS011;37338;47.426;19.204;2024-03-23T15:14:48;3.33;;;1.35;;
51266;SDS011;37338;47.426;19.204;2024-03-23T15:17:14;2.53;;;2.10;;